Decoded Metar for KANK ( in ) (IATA:) | Meteo·Mobile Aviation Weather
aviador You're here:

KANK Decoded Metar

in
Report Time2018-12-17 10:35:00
UTC Time2018-12-17 10:52:26
Flight Rules vfr VFR
Wind330° at 06 kt
W.Decomp.*RWY 24: 6.0 kt RCW
W.Rank330° ranks 6
Current wind is below 330° avg. (6.8)
Visibility9999 m
Phenomena:N/A
Clouds:N/A
Expected CloudBase > 4,000 ft AGL from Temp-Dew spread
CeilingNone
Temp-4°C
Dew Point-14°C (46% RH)
AAT-9.5°C
QNH1028 hPa
Raw Report
KANK 171035Z AUTO 33006KT 10SM CLR M04/M14 A3037 RMK AO1
T10391145=

Extra information for KANK:More info

Social comments